createdAt,value
2017-07-16T00:00:04.639Z,0
2017-07-16T00:01:14.575Z,0
2017-07-16T00:02:24.826Z,0
2017-07-16T00:03:34.751Z,0
2017-07-16T00:04:44.926Z,0
2017-07-16T00:05:54.550Z,0
2017-07-16T00:07:04.803Z,0
2017-07-16T00:08:14.736Z,0
2017-07-16T00:09:24.977Z,0
2017-07-16T00:10:35.494Z,0
2017-07-16T00:11:45.733Z,0
2017-07-16T00:12:55.975Z,0
2017-07-16T00:14:05.903Z,0
2017-07-16T00:15:15.838Z,0
2017-07-16T00:16:25.712Z,0
2017-07-16T00:17:35.960Z,0
2017-07-16T00:18:45.884Z,0
2017-07-16T00:19:56.129Z,0
2017-07-16T00:21:05.772Z,0
2017-07-16T00:22:15.947Z,0
2017-07-16T00:23:26.184Z,0
2017-07-16T00:24:36.446Z,0
2017-07-16T00:25:46.687Z,0
2017-07-16T00:26:56.298Z,0
2017-07-16T00:28:06.476Z,0
2017-07-16T00:29:16.454Z,0
2017-07-16T00:30:26.735Z,0
2017-07-16T00:31:36.971Z,0
2017-07-16T00:32:47.234Z,0
2017-07-16T00:33:57.455Z,0
2017-07-16T00:35:07.713Z,0
2017-07-16T00:36:17.352Z,0
2017-07-16T00:37:27.278Z,0
2017-07-16T00:38:36.901Z,0
2017-07-16T00:39:47.113Z,0
2017-07-16T00:40:57.363Z,0
2017-07-16T00:42:07.599Z,0
2017-07-16T00:43:17.207Z,0
2017-07-16T00:44:27.449Z,0
2017-07-16T00:45:37.953Z,0
2017-07-16T00:46:47.569Z,0
2017-07-16T00:47:57.822Z,0
2017-07-16T00:49:08.061Z,0
2017-07-16T00:50:17.681Z,0
2017-07-16T00:51:27.865Z,0
2017-07-16T00:52:38.106Z,0
2017-07-16T00:53:47.781Z,0
2017-07-16T00:54:58.017Z,0
2017-07-16T00:56:07.630Z,0
2017-07-16T00:57:17.818Z,0
2017-07-16T00:58:28.067Z,0
2017-07-16T00:59:37.994Z,0
2017-07-16T01:00:48.237Z,0
2017-07-16T01:01:58.181Z,0
2017-07-16T01:03:08.700Z,0
2017-07-16T01:04:18.947Z,0
2017-07-16T01:05:29.187Z,0
2017-07-16T01:06:39.435Z,0
2017-07-16T01:07:49.361Z,0
2017-07-16T01:08:59.853Z,0
2017-07-16T01:10:09.781Z,0
2017-07-16T01:11:20.030Z,0
2017-07-16T01:12:30.276Z,0
2017-07-16T01:13:41.220Z,0
2017-07-16T01:14:51.398Z,0
2017-07-16T01:16:01.332Z,0
2017-07-16T01:17:11.586Z,0
2017-07-16T01:18:21.502Z,0
2017-07-16T01:19:30.812Z,0
2017-07-16T01:20:41.358Z,0
2017-07-16T01:21:51.283Z,0
2017-07-16T01:23:01.214Z,0
2017-07-16T01:24:10.824Z,0
2017-07-16T01:25:21.066Z,0
2017-07-16T01:26:30.937Z,0
2017-07-16T01:27:40.240Z,0
2017-07-16T01:28:49.849Z,0
2017-07-16T01:29:59.786Z,0
2017-07-16T01:31:09.703Z,0
2017-07-16T01:32:19.941Z,0
2017-07-16T01:33:29.875Z,0
2017-07-16T01:34:40.127Z,0
2017-07-16T01:35:50.370Z,0
2017-07-16T01:37:00.294Z,0
2017-07-16T01:38:10.801Z,0
2017-07-16T01:39:21.074Z,0
2017-07-16T01:40:31.352Z,0
2017-07-16T01:41:41.280Z,0
2017-07-16T01:42:51.523Z,0
2017-07-16T01:44:01.749Z,0
2017-07-16T01:45:11.995Z,0
2017-07-16T01:46:22.240Z,0
2017-07-16T01:47:32.489Z,0
2017-07-16T01:48:42.419Z,0
2017-07-16T01:49:52.613Z,0
2017-07-16T01:51:02.860Z,0
2017-07-16T01:52:12.491Z,0
2017-07-16T01:53:22.735Z,0
2017-07-16T01:54:32.985Z,0
2017-07-16T01:55:43.492Z,0
2017-07-16T01:56:53.106Z,0
2017-07-16T01:58:03.033Z,0
2017-07-16T01:59:13.294Z,0
2017-07-16T02:00:23.226Z,0
2017-07-16T02:01:33.721Z,0
2017-07-16T02:02:43.975Z,0
2017-07-16T02:03:53.903Z,0
2017-07-16T02:05:03.825Z,0
2017-07-16T02:06:13.759Z,0
2017-07-16T02:07:24.244Z,0
2017-07-16T02:08:34.178Z,0
2017-07-16T02:09:44.111Z,0
2017-07-16T02:10:54.360Z,0
2017-07-16T02:12:04.294Z,0
2017-07-16T02:13:14.859Z,0
2017-07-16T02:14:25.108Z,0
2017-07-16T02:15:35.359Z,0
2017-07-16T02:16:44.979Z,0
2017-07-16T02:17:54.598Z,4
2017-07-16T02:19:04.819Z,4
2017-07-16T02:20:15.069Z,0
2017-07-16T02:21:24.354Z,4
2017-07-16T02:22:34.593Z,4
2017-07-16T02:23:44.507Z,8
2017-07-16T02:24:54.793Z,4
2017-07-16T02:26:05.029Z,8
2017-07-16T02:27:15.273Z,8
2017-07-16T02:28:25.513Z,8
2017-07-16T02:29:35.774Z,12
2017-07-16T02:30:45.639Z,12
2017-07-16T02:31:55.875Z,12
2017-07-16T02:33:05.799Z,16
2017-07-16T02:34:16.046Z,20
2017-07-16T02:35:25.657Z,20
2017-07-16T02:36:36.160Z,24
2017-07-16T02:37:46.078Z,28
2017-07-16T02:38:55.379Z,32
2017-07-16T02:40:05.007Z,36
2017-07-16T02:41:14.625Z,44
2017-07-16T02:42:25.111Z,52
2017-07-16T02:43:34.729Z,60
2017-07-16T02:44:44.979Z,68
2017-07-16T02:45:54.896Z,80
2017-07-16T02:47:05.136Z,88
2017-07-16T02:48:15.303Z,104
2017-07-16T02:49:25.539Z,120
2017-07-16T02:50:35.787Z,140
2017-07-16T02:51:46.033Z,156
2017-07-16T02:52:56.006Z,176
2017-07-16T02:54:06.185Z,200
2017-07-16T02:55:16.118Z,228
2017-07-16T02:56:26.358Z,256
2017-07-16T02:57:36.288Z,284
2017-07-16T02:58:46.229Z,320
2017-07-16T02:59:56.766Z,356
2017-07-16T03:01:06.684Z,392
2017-07-16T03:02:16.960Z,432
2017-07-16T03:03:27.217Z,476
2017-07-16T03:04:37.145Z,520
2017-07-16T03:05:47.641Z,572
2017-07-16T03:06:57.879Z,620
2017-07-16T03:08:08.116Z,676
2017-07-16T03:09:18.358Z,728
2017-07-16T03:10:28.614Z,788
2017-07-16T03:11:39.137Z,844
2017-07-16T03:12:49.064Z,908
2017-07-16T03:13:59.316Z,968
2017-07-16T03:15:09.292Z,1040
2017-07-16T03:16:19.547Z,1104
2017-07-16T03:17:29.405Z,1172
2017-07-16T03:18:39.015Z,1244
2017-07-16T03:19:49.266Z,1320
2017-07-16T03:20:58.874Z,1392
2017-07-16T03:22:09.122Z,1468
2017-07-16T03:23:19.615Z,1556
2017-07-16T03:24:29.875Z,1684
2017-07-16T03:25:39.805Z,1752
2017-07-16T03:26:49.750Z,1804
2017-07-16T03:27:59.372Z,1888
2017-07-16T03:29:09.920Z,1972
2017-07-16T03:30:19.847Z,2060
2017-07-16T03:31:29.776Z,2152
2017-07-16T03:32:39.705Z,2244
2017-07-16T03:33:49.644Z,2340
2017-07-16T03:35:00.186Z,2436
2017-07-16T03:36:10.109Z,2528
2017-07-16T03:37:20.041Z,2616
2017-07-16T03:38:30.297Z,2708
2017-07-16T03:39:40.228Z,2792
2017-07-16T03:40:50.720Z,2876
2017-07-16T03:42:00.355Z,2956
2017-07-16T03:43:10.284Z,3036
2017-07-16T03:44:20.203Z,3120
2017-07-16T03:45:30.450Z,3200
2017-07-16T03:46:40.936Z,3280
2017-07-16T03:47:51.175Z,3360
2017-07-16T03:49:01.424Z,3440
2017-07-16T03:50:11.396Z,3516
2017-07-16T03:51:20.975Z,3592
2017-07-16T03:52:31.469Z,3664
2017-07-16T03:53:41.709Z,3740
2017-07-16T03:54:51.637Z,3812
2017-07-16T03:56:01.571Z,3876
2017-07-16T03:57:11.813Z,3940
2017-07-16T03:58:21.989Z,4004
2017-07-16T03:59:31.910Z,4064
2017-07-16T04:00:42.151Z,4132
2017-07-16T04:01:52.416Z,4192
2017-07-16T04:03:02.352Z,4252
2017-07-16T04:04:12.547Z,4316
2017-07-16T04:05:22.178Z,4380
2017-07-16T04:06:32.101Z,4432
2017-07-16T04:07:42.027Z,4488
2017-07-16T04:08:52.264Z,4544
2017-07-16T04:10:02.136Z,4600
2017-07-16T04:11:12.067Z,4660
2017-07-16T04:12:21.674Z,4716
2017-07-16T04:13:31.913Z,4772
2017-07-16T04:14:42.150Z,4828
2017-07-16T04:15:52.639Z,4884
2017-07-16T04:17:02.555Z,4936
2017-07-16T04:18:12.793Z,4988
2017-07-16T04:19:23.041Z,5040
2017-07-16T04:20:33.277Z,5084
2017-07-16T04:21:43.459Z,5120
2017-07-16T04:22:53.375Z,5164
2017-07-16T04:24:03.614Z,5208
2017-07-16T04:25:13.243Z,5252
2017-07-16T04:26:22.881Z,5300
2017-07-16T04:27:32.756Z,5340
2017-07-16T04:28:43.002Z,5376
2017-07-16T04:29:53.247Z,5420
2017-07-16T04:31:03.181Z,5460
2017-07-16T04:32:13.446Z,5500
2017-07-16T04:33:23.958Z,5544
2017-07-16T04:34:34.228Z,5576
2017-07-16T04:35:44.193Z,5620
2017-07-16T04:36:54.460Z,5652
2017-07-16T04:38:04.733Z,5696
2017-07-16T04:39:14.920Z,5732
2017-07-16T04:40:24.556Z,5772
2017-07-16T04:41:34.194Z,5812
2017-07-16T04:42:44.136Z,5848
2017-07-16T04:43:54.089Z,5888
2017-07-16T04:45:04.602Z,5924
2017-07-16T04:46:14.877Z,5968
2017-07-16T04:47:25.156Z,5996
2017-07-16T04:48:35.110Z,6036
2017-07-16T04:49:45.077Z,6064
2017-07-16T04:50:55.338Z,6060
2017-07-16T04:52:05.579Z,6024
2017-07-16T04:53:15.542Z,6104
2017-07-16T04:54:25.483Z,6140
2017-07-16T04:55:35.439Z,6148
2017-07-16T04:56:45.673Z,6136
2017-07-16T04:57:55.931Z,6176
2017-07-16T04:59:06.216Z,6272
2017-07-16T05:00:16.483Z,6332
2017-07-16T05:01:26.760Z,6324
2017-07-16T05:02:36.640Z,6332
2017-07-16T05:03:46.598Z,6380
2017-07-16T05:04:56.905Z,6464
2017-07-16T05:06:06.213Z,6536
2017-07-16T05:07:16.170Z,6600
2017-07-16T05:08:26.728Z,6656
2017-07-16T05:09:37.002Z,6696
2017-07-16T05:10:46.958Z,6720
2017-07-16T05:11:56.896Z,6744
2017-07-16T05:13:06.840Z,6768
2017-07-16T05:14:17.414Z,6800
2017-07-16T05:15:27.704Z,6828
2017-07-16T05:16:37.656Z,6860
2017-07-16T05:17:47.613Z,6912
2017-07-16T05:18:57.562Z,6940
2017-07-16T05:20:08.070Z,6960
2017-07-16T05:21:18.351Z,6972
2017-07-16T05:22:28.603Z,6980
2017-07-16T05:23:38.554Z,6988
2017-07-16T05:24:48.491Z,7016
2017-07-16T05:25:59.006Z,7052
2017-07-16T05:27:08.951Z,7116
2017-07-16T05:28:18.896Z,7200
2017-07-16T05:29:28.864Z,7284
2017-07-16T05:30:38.801Z,7348
2017-07-16T05:31:49.424Z,7388
2017-07-16T05:32:59.707Z,7392
2017-07-16T05:34:09.974Z,7396
2017-07-16T05:35:20.248Z,7396
2017-07-16T05:36:30.183Z,7400
2017-07-16T05:37:40.692Z,7420
2017-07-16T05:38:51.003Z,7436
2017-07-16T05:40:01.269Z,7396
2017-07-16T05:41:11.527Z,7468
2017-07-16T05:42:21.470Z,7468
2017-07-16T05:43:31.687Z,7600
2017-07-16T05:44:41.952Z,7736
2017-07-16T05:45:52.235Z,7948
2017-07-16T05:47:02.697Z,8112
2017-07-16T05:48:12.643Z,8268
2017-07-16T05:49:22.517Z,8436
2017-07-16T05:50:32.464Z,8608
2017-07-16T05:51:42.736Z,8788
2017-07-16T05:52:52.699Z,9028
2017-07-16T05:54:02.328Z,9296
2017-07-16T05:55:12.851Z,9584
2017-07-16T05:56:23.109Z,9828
2017-07-16T05:57:33.369Z,9996
2017-07-16T05:58:43.343Z,10148
2017-07-16T05:59:53.281Z,10344
2017-07-16T06:01:03.162Z,10596
2017-07-16T06:02:13.428Z,10872
2017-07-16T06:03:23.369Z,11152
2017-07-16T06:04:33.015Z,11512
2017-07-16T06:05:43.321Z,11900
2017-07-16T06:06:53.897Z,12324
2017-07-16T06:08:03.851Z,12812
2017-07-16T06:09:14.131Z,13404
2017-07-16T06:10:24.396Z,13980
2017-07-16T06:11:34.332Z,14896
2017-07-16T06:12:44.506Z,15788
2017-07-16T06:13:54.468Z,16552
2017-07-16T06:15:04.727Z,17256
2017-07-16T06:16:14.992Z,17812
2017-07-16T06:17:25.257Z,18464
2017-07-16T06:18:35.842Z,18784
2017-07-16T06:19:45.787Z,18496
2017-07-16T06:20:56.043Z,18432
2017-07-16T06:22:06.330Z,18112
2017-07-16T06:23:16.282Z,17596
2017-07-16T06:24:26.809Z,17380
2017-07-16T06:25:37.109Z,17140
2017-07-16T06:26:47.417Z,16948
2017-07-16T06:27:57.363Z,16952
2017-07-16T06:29:07.638Z,16752
2017-07-16T06:30:18.154Z,16584
2017-07-16T06:31:28.460Z,16440
2017-07-16T06:32:38.726Z,16352
2017-07-16T06:33:48.987Z,16476
2017-07-16T06:34:59.262Z,16748
2017-07-16T06:36:09.770Z,17136
2017-07-16T06:37:19.724Z,17596
2017-07-16T06:38:29.674Z,18176
2017-07-16T06:39:39.947Z,18464
2017-07-16T06:40:50.213Z,18752
2017-07-16T06:42:00.734Z,19008
2017-07-16T06:43:10.995Z,19264
2017-07-16T06:44:21.271Z,19360
2017-07-16T06:45:31.217Z,19392
2017-07-16T06:46:41.476Z,19360
2017-07-16T06:47:51.670Z,19456
2017-07-16T06:49:01.312Z,19616
2017-07-16T06:50:11.587Z,19712
2017-07-16T06:51:21.525Z,19616
2017-07-16T06:52:31.155Z,19456
2017-07-16T06:53:41.673Z,19360
2017-07-16T06:54:51.951Z,19296
2017-07-16T06:56:01.943Z,19424
2017-07-16T06:57:12.207Z,19712
2017-07-16T06:58:22.463Z,20032
2017-07-16T06:59:32.987Z,20320
2017-07-16T07:00:43.247Z,20512
2017-07-16T07:01:53.537Z,20640
2017-07-16T07:03:03.497Z,20736
2017-07-16T07:04:13.789Z,20768
2017-07-16T07:05:24.031Z,20704
2017-07-16T07:06:34.301Z,20480
2017-07-16T07:07:44.251Z,20192
2017-07-16T07:08:54.210Z,19904
2017-07-16T07:10:04.152Z,19776
2017-07-16T07:11:14.656Z,19680
2017-07-16T07:12:24.926Z,19488
2017-07-16T07:13:35.202Z,19200
2017-07-16T07:14:44.845Z,18656
2017-07-16T07:15:54.794Z,17820
2017-07-16T07:17:05.320Z,17408
2017-07-16T07:18:15.589Z,17088
2017-07-16T07:19:25.546Z,16868
2017-07-16T07:20:35.511Z,16844
2017-07-16T07:21:45.792Z,17104
2017-07-16T07:22:56.325Z,17396
2017-07-16T07:24:06.603Z,17708
2017-07-16T07:25:16.561Z,18080
2017-07-16T07:26:26.507Z,18624
2017-07-16T07:27:36.474Z,19072
2017-07-16T07:28:47.007Z,20000
2017-07-16T07:29:56.334Z,21184
2017-07-16T07:31:06.652Z,22688
2017-07-16T07:32:16.612Z,24160
2017-07-16T07:33:26.892Z,25344
2017-07-16T07:34:37.095Z,26144
2017-07-16T07:35:47.053Z,26944
2017-07-16T07:36:57.319Z,27456
2017-07-16T07:38:07.289Z,27232
2017-07-16T07:39:17.558Z,26944
2017-07-16T07:40:28.138Z,26528
2017-07-16T07:41:38.084Z,26240
2017-07-16T07:42:48.359Z,26432
2017-07-16T07:43:58.646Z,26720
2017-07-16T07:45:08.908Z,26976
2017-07-16T07:46:19.779Z,27232
2017-07-16T07:47:30.052Z,27520
2017-07-16T07:48:40.305Z,28160
2017-07-16T07:49:50.596Z,28544
2017-07-16T07:51:00.882Z,28736
2017-07-16T07:52:11.410Z,28320
2017-07-16T07:53:21.738Z,27872
2017-07-16T07:54:31.372Z,27648
2017-07-16T07:55:41.330Z,27168
2017-07-16T07:56:51.290Z,26880
2017-07-16T07:58:01.876Z,26176
2017-07-16T07:59:11.827Z,26048
2017-07-16T08:00:22.100Z,25760
2017-07-16T08:01:32.385Z,25344
2017-07-16T08:02:42.398Z,25376
2017-07-16T08:03:52.618Z,25440
2017-07-16T08:05:02.881Z,25920
2017-07-16T08:06:13.159Z,26176
2017-07-16T08:07:23.476Z,26336
2017-07-16T08:08:33.775Z,26048
2017-07-16T08:09:44.325Z,26272
2017-07-16T08:10:54.618Z,26432
2017-07-16T08:12:04.577Z,27008
2017-07-16T08:13:14.546Z,27264
2017-07-16T08:14:24.512Z,27200
2017-07-16T08:15:34.727Z,27008
2017-07-16T08:16:44.680Z,27168
2017-07-16T08:17:54.953Z,27712
2017-07-16T08:19:05.245Z,27488
2017-07-16T08:20:15.524Z,26336
2017-07-16T08:21:25.748Z,26784
2017-07-16T08:22:36.027Z,28416
2017-07-16T08:23:46.309Z,30048
2017-07-16T08:24:56.271Z,30656
2017-07-16T08:26:06.561Z,30304
2017-07-16T08:27:17.095Z,31200
2017-07-16T08:28:27.404Z,29728
2017-07-16T08:29:37.665Z,33120
2017-07-16T08:30:47.959Z,35840
2017-07-16T08:31:58.227Z,36992
2017-07-16T08:33:08.428Z,38048
2017-07-16T08:34:18.393Z,38624
2017-07-16T08:35:28.679Z,40192
2017-07-16T08:36:38.652Z,42720
2017-07-16T08:37:48.948Z,47360
2017-07-16T08:38:59.159Z,61440
2017-07-16T08:40:09.450Z,60896
2017-07-16T08:41:19.116Z,56864
2017-07-16T08:42:28.797Z,48352
2017-07-16T08:43:39.089Z,46624
2017-07-16T08:44:49.298Z,41184
2017-07-16T08:45:59.241Z,37696
2017-07-16T08:47:09.518Z,39424
2017-07-16T08:48:19.788Z,42752
2017-07-16T08:49:29.736Z,46176
2017-07-16T08:50:39.640Z,39104
2017-07-16T08:51:49.611Z,40992
2017-07-16T08:52:59.872Z,41536
2017-07-16T08:54:09.835Z,39936
2017-07-16T08:55:20.110Z,38880
2017-07-16T08:56:29.685Z,39168
2017-07-16T08:57:39.654Z,52704
2017-07-16T08:58:49.934Z,46784
2017-07-16T08:59:59.282Z,47072
2017-07-16T09:01:09.244Z,72448
2017-07-16T09:02:19.480Z,73920
2017-07-16T09:03:29.804Z,56256
2017-07-16T09:04:39.446Z,60960
2017-07-16T09:05:49.739Z,53088
2017-07-16T09:06:59.705Z,59744
2017-07-16T09:08:09.912Z,64032
2017-07-16T09:09:19.880Z,65696
2017-07-16T09:10:30.121Z,63264
2017-07-16T09:11:39.766Z,69248
2017-07-16T09:12:49.764Z,67520
2017-07-16T09:13:59.970Z,90144
2017-07-16T09:15:09.942Z,61984
2017-07-16T09:16:19.595Z,60192
2017-07-16T09:17:29.897Z,62688
2017-07-16T09:18:40.073Z,71552
2017-07-16T09:19:50.301Z,70752
2017-07-16T09:20:59.940Z,87456
2017-07-16T09:22:10.215Z,67936
2017-07-16T09:23:20.161Z,58400
2017-07-16T09:24:30.424Z,49056
2017-07-16T09:25:40.667Z,45088
2017-07-16T09:26:50.945Z,46784
2017-07-16T09:28:01.252Z,46400
2017-07-16T09:29:11.559Z,47232
2017-07-16T09:30:21.516Z,44800
2017-07-16T09:31:31.766Z,44704
2017-07-16T09:32:42.055Z,45184
2017-07-16T09:33:52.364Z,45600
2017-07-16T09:35:02.632Z,45984
2017-07-16T09:36:12.918Z,47488
2017-07-16T09:37:23.135Z,45152
2017-07-16T09:38:33.433Z,44640
2017-07-16T09:39:43.397Z,41056
2017-07-16T09:40:53.075Z,39520
2017-07-16T09:42:03.357Z,40064
2017-07-16T09:43:13.247Z,41216
2017-07-16T09:44:22.565Z,42304
2017-07-16T09:45:32.223Z,41472
2017-07-16T09:46:42.183Z,42048
2017-07-16T09:47:52.140Z,45984
2017-07-16T09:49:02.369Z,51776
2017-07-16T09:50:12.324Z,57600
2017-07-16T09:51:22.595Z,60288
2017-07-16T09:52:32.552Z,56096
2017-07-16T09:53:42.524Z,63040
2017-07-16T09:54:52.740Z,61824
2017-07-16T09:56:02.700Z,49760
2017-07-16T09:57:12.683Z,46880
2017-07-16T09:58:22.979Z,43712
2017-07-16T09:59:32.949Z,42720
2017-07-16T10:00:43.477Z,43232
2017-07-16T10:01:53.762Z,43296
2017-07-16T10:03:03.724Z,43648
2017-07-16T10:04:14.016Z,46496
2017-07-16T10:05:23.657Z,51744
2017-07-16T10:06:33.541Z,67712
2017-07-16T10:07:43.491Z,63296
2017-07-16T10:08:53.772Z,51264
2017-07-16T10:10:04.059Z,46048
2017-07-16T10:11:14.331Z,43456
2017-07-16T10:12:24.892Z,41056
2017-07-16T10:13:35.172Z,39008
2017-07-16T10:14:45.482Z,39520
2017-07-16T10:15:55.778Z,40896
2017-07-16T10:17:05.738Z,42656
2017-07-16T10:18:16.289Z,44480
2017-07-16T10:19:26.237Z,45632
2017-07-16T10:20:36.516Z,44704
2017-07-16T10:21:46.459Z,44320
2017-07-16T10:22:56.748Z,46784
2017-07-16T10:24:07.271Z,48384
2017-07-16T10:25:17.563Z,47328
2017-07-16T10:26:27.840Z,47392
2017-07-16T10:27:37.499Z,48480
2017-07-16T10:28:47.783Z,52256
2017-07-16T10:29:58.550Z,52032
2017-07-16T10:31:08.861Z,52736
2017-07-16T10:32:18.503Z,51296
2017-07-16T10:33:28.781Z,51232
2017-07-16T10:34:39.055Z,52480
2017-07-16T10:35:49.267Z,53056
2017-07-16T10:36:59.228Z,52416
2017-07-16T10:38:09.496Z,48992
2017-07-16T10:39:19.765Z,46720
2017-07-16T10:40:30.067Z,46624
2017-07-16T10:41:40.601Z,47712
2017-07-16T10:42:50.893Z,50176
2017-07-16T10:44:01.172Z,49888
2017-07-16T10:45:11.476Z,49536
2017-07-16T10:46:21.760Z,51072
2017-07-16T10:47:32.312Z,59744
2017-07-16T10:48:42.622Z,62176
2017-07-16T10:49:52.586Z,42176
2017-07-16T10:51:02.868Z,39008
2017-07-16T10:52:12.817Z,38912
2017-07-16T10:53:23.042Z,45664
2017-07-16T10:54:33.324Z,58176
2017-07-16T10:55:43.325Z,72960
2017-07-16T10:56:53.660Z,85824
2017-07-16T10:58:03.940Z,83744
2017-07-16T10:59:14.526Z,68736
2017-07-16T11:00:24.823Z,81056
2017-07-16T11:01:35.106Z,74432
2017-07-16T11:02:45.084Z,66336
2017-07-16T11:03:54.743Z,53792
2017-07-16T11:05:05.312Z,52320
2017-07-16T11:06:15.291Z,62624
2017-07-16T11:07:25.578Z,74816
2017-07-16T11:08:35.243Z,67456
2017-07-16T11:09:45.550Z,64032
2017-07-16T11:10:56.081Z,62304
2017-07-16T11:12:06.058Z,58848
2017-07-16T11:13:16.022Z,58304
2017-07-16T11:14:26.294Z,59584
2017-07-16T11:15:36.565Z,58880
2017-07-16T11:16:47.115Z,55264
2017-07-16T11:17:57.059Z,50144
2017-07-16T11:19:07.334Z,47296
2017-07-16T11:20:17.299Z,45472
2017-07-16T11:21:27.296Z,44256
2017-07-16T11:22:37.511Z,45696
2017-07-16T11:23:47.795Z,47328
2017-07-16T11:24:58.102Z,49024
2017-07-16T11:26:08.073Z,52448
2017-07-16T11:27:18.346Z,54880
2017-07-16T11:28:28.886Z,54976
2017-07-16T11:29:38.860Z,52032
2017-07-16T11:30:49.168Z,49760
2017-07-16T11:31:59.132Z,47296
2017-07-16T11:33:09.435Z,45216
2017-07-16T11:34:19.637Z,44704
2017-07-16T11:35:29.935Z,43392
2017-07-16T11:36:40.238Z,41856
2017-07-16T11:37:50.216Z,40960
2017-07-16T11:39:00.503Z,40576
2017-07-16T11:40:10.723Z,40224
2017-07-16T11:41:20.381Z,39456
2017-07-16T11:42:30.663Z,37248
2017-07-16T11:43:40.934Z,37408
2017-07-16T11:44:50.905Z,38112
2017-07-16T11:46:01.437Z,38432
2017-07-16T11:47:11.714Z,39424
2017-07-16T11:48:21.686Z,38496
2017-07-16T11:49:31.978Z,36640
2017-07-16T11:50:42.267Z,36288
2017-07-16T11:51:52.820Z,37344
2017-07-16T11:53:03.119Z,38048
2017-07-16T11:54:13.088Z,39232
2017-07-16T11:55:23.063Z,41216
2017-07-16T11:56:33.344Z,43904
2017-07-16T11:57:43.879Z,44768
2017-07-16T11:58:53.847Z,41888
2017-07-16T12:00:03.819Z,39744
2017-07-16T12:01:13.800Z,37632
2017-07-16T12:02:23.783Z,36032
2017-07-16T12:03:34.302Z,34720
2017-07-16T12:04:44.589Z,33344
2017-07-16T12:05:54.567Z,31744
2017-07-16T12:07:04.573Z,30496
2017-07-16T12:08:14.524Z,29760
2017-07-16T12:09:24.748Z,29760
2017-07-16T12:10:34.708Z,29824
2017-07-16T12:11:45.021Z,28992
2017-07-16T12:12:55.300Z,27264
2017-07-16T12:14:05.286Z,25248
2017-07-16T12:15:15.984Z,23168
2017-07-16T12:16:26.298Z,21280
2017-07-16T12:17:36.581Z,19904
2017-07-16T12:18:46.853Z,19456
2017-07-16T12:19:57.142Z,19936
2017-07-16T12:21:07.693Z,21184
2017-07-16T12:22:17.692Z,22816
2017-07-16T12:23:27.971Z,24640
2017-07-16T12:24:38.254Z,26624
2017-07-16T12:25:48.723Z,28832
2017-07-16T12:26:59.284Z,30784
2017-07-16T12:28:09.547Z,32448
2017-07-16T12:29:19.518Z,33536
2017-07-16T12:30:29.496Z,33344
2017-07-16T12:31:39.448Z,32480
2017-07-16T12:32:49.691Z,31200
2017-07-16T12:33:59.984Z,30432
2017-07-16T12:35:09.932Z,29984
2017-07-16T12:36:20.216Z,29600
2017-07-16T12:37:30.503Z,29312
2017-07-16T12:38:41.029Z,29184
2017-07-16T12:39:51.322Z,29184
2017-07-16T12:41:01.287Z,29600
2017-07-16T12:42:11.552Z,30336
2017-07-16T12:43:21.833Z,31232
2017-07-16T12:44:31.756Z,31520
2017-07-16T12:45:42.039Z,31328
2017-07-16T12:46:51.995Z,31072
2017-07-16T12:48:02.268Z,31264
2017-07-16T12:49:12.558Z,31712
2017-07-16T12:50:23.095Z,32192
2017-07-16T12:51:33.375Z,32544
2017-07-16T12:52:43.649Z,32608
2017-07-16T12:53:53.605Z,32192
2017-07-16T12:55:03.552Z,31296
2017-07-16T12:56:14.075Z,30144
2017-07-16T12:57:24.351Z,29056
2017-07-16T12:58:34.205Z,28416
2017-07-16T12:59:44.485Z,28288
2017-07-16T13:00:54.775Z,28480
2017-07-16T13:02:05.356Z,28640
2017-07-16T13:03:15.328Z,28544
2017-07-16T13:04:25.612Z,28320
2017-07-16T13:05:35.900Z,28256
2017-07-16T13:06:46.177Z,28320
2017-07-16T13:07:56.442Z,28480
2017-07-16T13:09:06.422Z,28448
2017-07-16T13:10:16.399Z,27872
2017-07-16T13:11:26.688Z,27168
2017-07-16T13:12:36.969Z,26688
2017-07-16T13:13:47.208Z,26368
2017-07-16T13:14:57.521Z,26336
2017-07-16T13:16:07.793Z,26592
2017-07-16T13:17:18.062Z,27264
2017-07-16T13:18:28.057Z,28128
2017-07-16T13:19:37.950Z,28832
2017-07-16T13:20:47.907Z,29248
2017-07-16T13:21:57.880Z,29408
2017-07-16T13:23:07.847Z,29376
2017-07-16T13:24:17.799Z,29184
2017-07-16T13:25:28.063Z,28736
2017-07-16T13:26:38.376Z,28160
2017-07-16T13:27:48.361Z,27488
2017-07-16T13:28:58.348Z,26784
2017-07-16T13:30:08.314Z,26400
2017-07-16T13:31:18.540Z,26464
2017-07-16T13:32:28.210Z,27136
2017-07-16T13:33:38.487Z,28384
2017-07-16T13:34:48.431Z,29824
2017-07-16T13:35:58.688Z,30880
2017-07-16T13:37:08.924Z,31712
2017-07-16T13:38:18.590Z,32640
2017-07-16T13:39:28.555Z,33600
2017-07-16T13:40:38.576Z,34432
2017-07-16T13:41:48.538Z,35392
2017-07-16T13:42:59.122Z,36576
2017-07-16T13:44:09.416Z,38080
2017-07-16T13:45:19.700Z,38432
2017-07-16T13:46:29.969Z,37472
2017-07-16T13:47:40.249Z,36032
2017-07-16T13:48:50.136Z,34592
2017-07-16T13:50:00.420Z,33216
2017-07-16T13:51:10.710Z,33248
2017-07-16T13:52:20.988Z,34848
2017-07-16T13:53:31.291Z,37600
2017-07-16T13:54:41.836Z,40704
2017-07-16T13:55:52.121Z,40352
2017-07-16T13:57:01.761Z,36736
2017-07-16T13:58:12.033Z,33984
2017-07-16T13:59:22.327Z,32768
2017-07-16T14:00:32.583Z,32672
2017-07-16T14:01:42.575Z,33056
2017-07-16T14:02:52.848Z,33408
2017-07-16T14:04:03.138Z,33536
2017-07-16T14:05:13.424Z,32896
2017-07-16T14:06:23.955Z,31040
2017-07-16T14:07:34.229Z,29312
2017-07-16T14:08:44.531Z,28256
2017-07-16T14:09:54.832Z,27584
2017-07-16T14:11:05.122Z,27136
2017-07-16T14:12:15.334Z,26720
2017-07-16T14:13:25.622Z,26560
2017-07-16T14:14:35.897Z,26624
2017-07-16T14:15:45.875Z,26752
2017-07-16T14:16:56.149Z,27008
2017-07-16T14:18:06.046Z,26976
2017-07-16T14:19:16.342Z,26560
2017-07-16T14:20:26.309Z,25760
2017-07-16T14:21:36.579Z,24864
2017-07-16T14:22:46.862Z,24160
2017-07-16T14:23:57.379Z,23552
2017-07-16T14:25:07.668Z,22880
2017-07-16T14:26:17.616Z,22400
2017-07-16T14:27:27.900Z,22016
2017-07-16T14:28:38.178Z,22624
2017-07-16T14:29:48.705Z,24480
2017-07-16T14:30:58.657Z,23808
2017-07-16T14:32:08.963Z,23200
2017-07-16T14:33:19.245Z,23360
2017-07-16T14:34:29.539Z,24064
2017-07-16T14:35:40.079Z,24640
2017-07-16T14:36:50.366Z,24640
2017-07-16T14:38:00.012Z,24320
2017-07-16T14:39:09.983Z,24096
2017-07-16T14:40:20.257Z,24000
2017-07-16T14:41:30.803Z,23840
2017-07-16T14:42:40.767Z,23648
2017-07-16T14:43:51.102Z,23456
2017-07-16T14:45:01.372Z,23200
2017-07-16T14:46:11.322Z,22880
2017-07-16T14:47:20.900Z,22656
2017-07-16T14:48:31.192Z,22368
2017-07-16T14:49:41.501Z,22080
2017-07-16T14:50:51.459Z,21664
2017-07-16T14:52:01.744Z,21088
2017-07-16T14:53:11.967Z,20288
2017-07-16T14:54:22.252Z,19424
2017-07-16T14:55:32.534Z,18496
2017-07-16T14:56:42.182Z,17632
2017-07-16T14:57:52.147Z,16624
2017-07-16T14:59:02.365Z,15992
2017-07-16T15:00:12.653Z,15348
2017-07-16T15:01:22.956Z,14680
2017-07-16T15:02:32.914Z,14148
2017-07-16T15:03:42.889Z,13608
2017-07-16T15:04:53.150Z,13220
2017-07-16T15:06:03.436Z,13260
2017-07-16T15:07:13.735Z,13640
2017-07-16T15:08:24.029Z,14104
2017-07-16T15:09:33.985Z,14192
2017-07-16T15:10:44.533Z,14028
2017-07-16T15:11:54.827Z,14080
2017-07-16T15:13:05.092Z,14740
2017-07-16T15:14:15.387Z,15612
2017-07-16T15:15:25.373Z,16052
2017-07-16T15:16:35.900Z,15544
2017-07-16T15:17:46.195Z,14456
2017-07-16T15:18:56.458Z,13668
2017-07-16T15:20:06.744Z,12812
2017-07-16T15:21:17.024Z,12476
2017-07-16T15:22:27.547Z,12496
2017-07-16T15:23:37.860Z,12896
2017-07-16T15:24:48.133Z,13572
2017-07-16T15:25:58.419Z,14636
2017-07-16T15:27:08.058Z,15468
2017-07-16T15:28:18.258Z,14932
2017-07-16T15:29:28.244Z,13536
2017-07-16T15:30:37.878Z,12712